CYET

Edson Airport

Edson, Alberta, Canada
METAR CYET 231500Z AUTO 27005KT 9SM CLR M05/M07 A2990 RMK SLP169
Observed Flight Rules
Oct-23 @ 15:00 UTC (an hour ago) Visual Flight Rules
Wind Visibility Clouds
270° at 5 knots 9 miles
  • Clear skies
Temperatures Readings
Current -5°C / 23°F
Dewpoint -7°C / 19°F
Humidity 86%
Altimeter 29.9" Hg
Pressure 1016.9 hPa
Elevation 925
METAR CYET 231500Z AUTO 27005KT 9SM CLR M05/M07 A2990 RMK SLP169
Observed Flight Rules
Oct-23 @ 15:00 UTC
(an hour ago)
VFR
Wind Visibility
270° at 5 knots 9 miles
Clouds
  • Clear skies
Temperature Dewpoint
-5°C / 23°F -7°C / 19°F
Humidity Altimeter Pressure
86% 29.9" Hg 1016.9 hPa